Time;durP1;ratioP1;P1;durP2;ratioP2;P2;SDS_P1;SDS_P2;PMS_P1;PMS_P2;Temp;Humidity;BMP_temperature;BMP_pressure;BME280_temperature;BME280_humidity;BME280_pressure;Samples;Min_cycle;Max_cycle;Signal;HPM_P1;HPM_P2
2021/01/21 00:00:07;;;;;;;190.57;136.13;;;;;;;2.19;93.97;100806.16;5083130;28;20399;-74
2021/01/21 00:03:17;;;;;;;195.15;138.00;;;;;;;2.13;93.75;100785.22;5075408;28;20045;-74
2021/01/21 00:06:21;;;;;;;194.75;135.80;;;;;;;2.11;94.16;100790.63;5093289;28;20483;-74
2021/01/21 00:09:26;;;;;;;192.98;138.82;;;;;;;2.03;94.40;100773.34;5095788;28;20382;-74
2021/01/21 00:12:31;;;;;;;197.27;140.20;;;;;;;2.06;94.74;100762.63;5095522;28;20032;-73
2021/01/21 00:15:35;;;;;;;198.18;139.90;;;;;;;2.04;94.74;100783.88;5089057;28;20045;-74
2021/01/21 00:18:39;;;;;;;207.70;143.43;;;;;;;2.08;94.73;100793.41;5081991;28;20045;-74
2021/01/21 00:21:44;;;;;;;209.68;145.52;;;;;;;2.06;94.89;100799.69;5075065;28;20041;-72
2021/01/21 00:24:48;;;;;;;203.25;143.50;;;;;;;2.08;94.78;100793.41;5089367;28;20032;-74
2021/01/21 00:28:10;;;;;;;203.20;140.07;;;;;;;2.10;94.98;100785.41;5095304;28;20478;-74
2021/01/21 00:31:27;;;;;;;194.07;136.88;;;;;;;2.11;94.76;100785.31;5094486;28;20039;-74
2021/01/21 00:34:31;;;;;;;187.95;134.57;;;;;;;2.11;94.72;100776.50;5095141;28;20048;-74
2021/01/21 00:37:36;;;;;;;182.60;131.32;;;;;;;2.05;94.41;100780.28;5074133;28;20044;-73
2021/01/21 00:40:40;;;;;;;186.30;132.05;;;;;;;2.07;94.68;100783.75;5091512;28;20048;-74
2021/01/21 00:43:44;;;;;;;177.80;129.85;;;;;;;2.07;94.72;100790.84;5083300;28;20044;-74
2021/01/21 00:46:50;;;;;;;176.93;129.52;;;;;;;2.09;94.47;100773.06;5074655;28;20052;-72
2021/01/21 00:49:54;;;;;;;191.40;135.15;;;;;;;2.02;94.47;100750.47;5074598;28;20040;-73
2021/01/21 00:52:59;;;;;;;189.13;133.90;;;;;;;1.95;94.74;100756.03;5074509;28;20410;-73
2021/01/21 00:56:05;;;;;;;202.85;138.43;;;;;;;1.88;95.01;100762.53;5085715;28;20028;-74
2021/01/21 00:59:10;;;;;;;214.63;144.50;;;;;;;1.88;95.10;100748.44;5083292;28;20036;-73
2021/01/21 01:02:15;;;;;;;199.07;138.23;;;;;;;1.88;95.15;100744.03;5076232;28;20396;-73
2021/01/21 01:05:20;;;;;;;204.93;141.15;;;;;;;1.86;95.36;100764.41;5073488;28;20032;-73
2021/01/21 01:08:25;;;;;;;221.23;147.27;;;;;;;1.77;95.24;100754.25;5073475;28;20048;-73
2021/01/21 01:11:29;;;;;;;211.65;145.50;;;;;;;1.83;95.62;100746.00;5079488;28;20040;-73
2021/01/21 01:14:34;;;;;;;210.65;143.10;;;;;;;1.81;95.53;100755.81;5094385;28;20035;-73
2021/01/21 01:17:38;;;;;;;218.95;145.35;;;;;;;1.79;95.47;100746.22;5078632;28;20407;-74
2021/01/21 01:20:42;;;;;;;229.63;154.27;;;;;;;1.73;95.75;100750.00;5088740;28;20499;-74
2021/01/21 01:23:47;;;;;;;225.80;149.77;;;;;;;1.79;95.78;100770.91;5072876;28;20056;-74
2021/01/21 01:26:52;;;;;;;212.45;145.05;;;;;;;1.85;95.59;100753.91;5073769;28;20407;-74
2021/01/21 01:29:59;;;;;;;223.02;145.55;;;;;;;1.88;95.88;100751.97;5088822;28;20036;-72
2021/01/21 01:33:04;;;;;;;213.60;144.60;;;;;;;1.93;95.78;100749.09;5093416;28;20052;-74
2021/01/21 01:36:09;;;;;;;214.27;143.82;;;;;;;1.94;95.54;100749.03;5092744;28;20048;-74
2021/01/21 01:39:13;;;;;;;233.43;149.43;;;;;;;1.87;95.62;100752.91;5080630;28;20048;-74
2021/01/21 01:42:25;;;;;;;231.18;146.75;;;;;;;1.91;95.64;100750.97;5093550;28;20044;-73
2021/01/21 01:45:31;;;;;;;208.00;141.65;;;;;;;1.95;95.58;100749.91;5076736;28;20049;-73
2021/01/21 01:48:40;;;;;;;207.65;140.30;;;;;;;1.94;95.57;100750.81;5073867;28;20040;-73
2021/01/21 01:51:45;;;;;;;195.95;135.88;;;;;;;1.93;95.44;100757.91;5073037;28;20045;-72
2021/01/21 01:54:51;;;;;;;196.50;134.75;;;;;;;1.97;95.43;100756.81;5092016;28;20399;-73
2021/01/21 01:58:09;;;;;;;190.88;133.38;;;;;;;1.93;95.30;100749.97;5083305;28;20040;-73
2021/01/21 02:01:35;;;;;;;191.93;135.35;;;;;;;1.93;95.25;100730.56;5081354;28;20048;-74
2021/01/21 02:04:46;;;;;;;184.45;132.93;;;;;;;1.94;95.30;100732.28;5091134;28;20036;-73
2021/01/21 02:08:07;;;;;;;187.70;130.75;;;;;;;1.96;95.07;100720.72;5062961;28;20040;-75
2021/01/21 02:11:23;;;;;;;184.05;129.60;;;;;;;1.94;94.76;100717.28;5088516;28;20040;-74
2021/01/21 02:15:02;;;;;;;183.63;130.05;;;;;;;1.93;94.71;100714.69;5085299;28;20040;-74
2021/01/21 02:18:26;;;;;;;188.15;129.60;;;;;;;1.92;94.83;100708.56;5085251;28;20040;-74
2021/01/21 02:21:58;;;;;;;196.15;138.05;;;;;;;1.91;94.83;100711.25;5096523;28;20040;-74
2021/01/21 02:25:20;;;;;;;198.73;136.13;;;;;;;1.88;94.87;100706.09;5096339;28;20044;-73
2021/01/21 02:28:49;;;;;;;194.23;135.85;;;;;;;1.87;94.75;100710.56;5096802;28;20040;-74
2021/01/21 02:32:14;;;;;;;189.75;132.90;;;;;;;1.89;94.96;100716.63;5097489;28;20475;-74
2021/01/21 02:35:39;;;;;;;192.20;132.07;;;;;;;1.89;94.88;100716.63;5096624;28;20036;-74
2021/01/21 02:38:45;;;;;;;200.07;136.32;;;;;;;1.91;94.78;100711.25;5097649;28;20040;-75
2021/01/21 02:41:50;;;;;;;194.35;132.93;;;;;;;1.89;95.25;100711.34;5096789;28;20478;-74
2021/01/21 02:44:55;;;;;;;190.40;132.80;;;;;;;1.90;94.99;100710.41;5097476;28;20040;-74
2021/01/21 02:48:02;;;;;;;195.02;133.38;;;;;;;1.95;95.20;100711.03;5096373;28;20040;-75
2021/01/21 02:51:33;;;;;;;198.05;134.15;;;;;;;1.92;95.23;100710.34;5096894;28;20036;-74
2021/01/21 02:54:49;;;;;;;200.35;135.40;;;;;;;1.95;95.19;100700.44;5096269;28;20040;-74
2021/01/21 02:58:05;;;;;;;198.00;136.00;;;;;;;1.96;95.07;100699.53;5084310;28;20052;-74
2021/01/21 03:01:10;;;;;;;200.73;138.50;;;;;;;1.97;95.34;100695.94;5095679;28;20044;-74
2021/01/21 03:04:18;;;;;;;209.43;141.80;;;;;;;1.93;95.43;100683.78;5096753;28;20037;-74
2021/01/21 03:07:25;;;;;;;210.07;141.80;;;;;;;1.92;95.43;100690.03;5095615;28;20044;-73
2021/01/21 03:10:33;;;;;;;211.20;140.63;;;;;;;1.96;95.26;100686.31;5095927;28;20036;-73
2021/01/21 03:13:42;;;;;;;220.68;146.48;;;;;;;1.95;95.37;100679.28;5096488;28;20399;-74
2021/01/21 03:16:46;;;;;;;220.90;141.75;;;;;;;1.93;95.20;100688.22;5095600;28;20044;-73
2021/01/21 03:19:53;;;;;;;223.63;144.55;;;;;;;1.96;95.47;100683.66;5094973;28;20040;-74
2021/01/21 03:22:59;;;;;;;233.23;146.90;;;;;;;1.94;95.48;100668.78;5095010;28;20475;-78
2021/01/21 03:26:04;;;;;;;225.35;142.27;;;;;;;1.97;95.64;100664.16;5095724;28;20056;-77
2021/01/21 03:29:09;;;;;;;234.40;145.35;;;;;;;1.93;95.31;100649.38;5095662;28;20048;-80
2021/01/21 03:32:13;;;;;;;228.48;140.98;;;;;;;1.96;95.88;100667.78;5095538;28;20387;-78
2021/01/21 03:35:28;;;;;;;234.75;145.23;;;;;;;1.91;95.60;100669.78;5095524;28;20044;-76
2021/01/21 03:38:33;;;;;;;224.43;140.18;;;;;;;1.92;95.67;100650.34;5094968;28;20411;-76
2021/01/21 03:41:56;;;;;;;231.75;142.48;;;;;;;1.95;95.84;100673.97;5095629;28;20044;-78
2021/01/21 03:45:16;;;;;;;220.32;136.10;;;;;;;2.01;95.58;100680.78;5083696;28;20040;-80
2021/01/21 03:48:21;;;;;;;229.63;136.43;;;;;;;2.00;95.47;100664.97;5095234;28;20399;-79
2021/01/21 03:52:04;;;;;;;234.25;137.88;;;;;;;2.02;95.63;100669.28;5053835;28;20040;-81
2021/01/21 03:55:17;;;;;;;237.85;136.00;;;;;;;1.97;95.40;100664.16;5053491;28;20044;-79
2021/01/21 03:58:28;;;;;;;237.13;139.07;;;;;;;1.97;95.53;100676.56;5053281;28;20049;-77
2021/01/21 04:01:43;;;;;;;242.90;137.65;;;;;;;2.02;95.65;100677.22;5053135;28;20075;-76
2021/01/21 04:04:47;;;;;;;234.38;135.75;;;;;;;2.03;95.59;100667.47;5053367;28;20045;-78
2021/01/21 04:07:55;;;;;;;250.75;140.57;;;;;;;2.05;95.55;100663.81;5053371;28;20053;-77
2021/01/21 04:10:59;;;;;;;234.80;137.35;;;;;;;2.06;96.20;100651.44;5053387;28;20476;-78
2021/01/21 04:14:10;;;;;;;251.85;136.30;;;;;;;1.97;95.68;100647.47;5064615;28;20080;-80
2021/01/21 04:17:16;;;;;;;251.48;139.80;;;;;;;1.97;95.94;100650.94;5041332;28;20045;-78
2021/01/21 04:20:22;;;;;;;251.23;139.60;;;;;;;1.92;95.82;100652.97;5052617;28;20041;-74
2021/01/21 04:23:30;;;;;;;258.17;137.85;;;;;;;1.98;95.89;100657.09;5100880;28;20048;-80
2021/01/21 04:26:36;;;;;;;249.95;136.82;;;;;;;2.03;96.00;100664.81;5093331;28;20044;-78
2021/01/21 04:29:41;;;;;;;247.10;137.73;;;;;;;2.03;95.88;100662.16;5093916;28;20056;-76
2021/01/21 04:32:45;;;;;;;240.93;133.20;;;;;;;2.08;95.81;100662.81;5093962;28;20036;-78
2021/01/21 04:35:53;;;;;;;243.93;134.13;;;;;;;2.03;95.71;100651.56;5093189;28;20032;-74
2021/01/21 04:38:59;;;;;;;234.93;133.32;;;;;;;2.05;95.49;100655.88;5093671;28;20044;-78
2021/01/21 04:42:05;;;;;;;235.48;135.57;;;;;;;2.04;95.49;100654.16;5093614;28;20048;-77
2021/01/21 04:45:15;;;;;;;237.00;132.40;;;;;;;2.08;95.77;100652.22;5093612;28;20407;-76
2021/01/21 04:48:26;;;;;;;222.05;129.57;;;;;;;2.11;95.59;100662.66;5093815;28;20060;-79
2021/01/21 04:51:49;;;;;;;229.60;129.90;;;;;;;2.11;95.59;100660.00;5092979;28;20048;-79
2021/01/21 04:55:06;;;;;;;230.65;131.60;;;;;;;2.11;95.52;100665.31;5081860;28;20040;-79
2021/01/21 04:58:35;;;;;;;224.15;131.60;;;;;;;2.11;95.56;100660.88;5093304;28;20047;-80
2021/01/21 05:01:42;;;;;;;230.70;132.00;;;;;;;2.15;95.60;100661.59;5093460;28;20044;-78
2021/01/21 05:04:49;;;;;;;237.50;134.55;;;;;;;2.18;95.38;100651.69;5093283;28;20044;-81
2021/01/21 05:08:08;;;;;;;247.65;135.38;;;;;;;2.15;95.35;100659.78;5093226;28;20463;-79
2021/01/21 05:11:13;;;;;;;260.90;142.52;;;;;;;2.07;95.52;100654.03;5093337;28;20051;-79
2021/01/21 05:14:38;;;;;;;252.48;137.52;;;;;;;2.07;95.66;100667.28;5094059;28;20469;-77
2021/01/21 05:17:43;;;;;;;253.98;137.65;;;;;;;2.14;95.55;100659.88;5094092;28;20044;-77
2021/01/21 05:21:07;;;;;;;267.90;140.27;;;;;;;2.07;95.67;100643.44;5094269;28;20044;-77
2021/01/21 05:24:37;;;;;;;264.20;136.32;;;;;;;2.14;95.73;100658.09;5050792;28;20033;-77
2021/01/21 05:28:05;;;;;;;254.13;133.38;;;;;;;2.14;95.79;100657.22;5039898;28;20040;-78
2021/01/21 05:31:28;;;;;;;251.15;135.20;;;;;;;2.20;96.07;100670.19;5040324;28;20041;-77
2021/01/21 05:34:33;;;;;;;246.18;133.45;;;;;;;2.25;96.13;100668.13;5051259;28;20045;-78
2021/01/21 05:37:54;;;;;;;241.73;132.10;;;;;;;2.27;95.86;100664.47;5051117;28;20041;-77
2021/01/21 05:41:19;;;;;;;260.33;132.95;;;;;;;2.22;96.06;100647.13;5041035;28;20041;-77
2021/01/21 05:44:40;;;;;;;241.25;131.20;;;;;;;2.27;96.07;100643.28;5051516;28;20373;-78
2021/01/21 05:48:12;;;;;;;253.85;132.55;;;;;;;2.29;96.08;100644.09;5011846;28;20038;-80
2021/01/21 05:51:17;;;;;;;235.45;126.75;;;;;;;2.33;95.98;100644.78;4993205;28;20038;-79
2021/01/21 05:54:27;;;;;;;257.80;131.38;;;;;;;2.30;96.09;100652.88;5022357;28;20045;-76
2021/01/21 05:57:37;;;;;;;247.07;128.77;;;;;;;2.32;96.05;100635.16;4999452;28;20049;-77
2021/01/21 06:00:43;;;;;;;228.35;123.10;;;;;;;2.34;96.19;100630.63;5030636;28;20045;-77
2021/01/21 06:04:17;;;;;;;264.55;141.48;;;;;;;2.32;96.13;100617.44;5019872;28;20041;-79
2021/01/21 06:07:22;;;;;;;357.98;204.48;;;;;;;2.35;96.35;100619.94;5031200;28;20384;-78
2021/01/21 06:10:26;;;;;;;259.42;134.77;;;;;;;2.35;96.20;100640.28;5031105;28;20037;-79
2021/01/21 06:13:30;;;;;;;239.18;130.07;;;;;;;2.36;96.29;100640.22;5030860;28;20045;-77
2021/01/21 06:16:36;;;;;;;235.38;125.30;;;;;;;2.38;96.31;100633.03;5031137;28;20392;-78
2021/01/21 06:19:41;;;;;;;230.55;122.03;;;;;;;2.42;96.26;100633.75;5030972;28;20057;-76
2021/01/21 06:22:53;;;;;;;216.00;117.70;;;;;;;2.45;96.29;100634.44;5031071;28;20427;-79
2021/01/21 06:25:59;;;;;;;227.48;121.78;;;;;;;2.42;96.15;100650.50;5091857;28;20040;-78
2021/01/21 06:29:05;;;;;;;213.73;119.90;;;;;;;2.44;96.09;100650.44;5093060;28;20040;-79
2021/01/21 06:32:12;;;;;;;222.52;120.53;;;;;;;2.43;96.16;100654.88;5093169;28;20055;-77
2021/01/21 06:35:20;;;;;;;227.98;120.70;;;;;;;2.42;96.22;100662.91;5091762;28;20044;-76
2021/01/21 06:38:34;;;;;;;207.55;119.20;;;;;;;2.38;96.19;100658.66;5092123;28;20060;-76
2021/01/21 06:41:43;;;;;;;214.43;121.88;;;;;;;2.43;96.17;100662.81;5092867;28;20470;-78
2021/01/21 06:44:51;;;;;;;216.38;119.70;;;;;;;2.45;96.20;100662.72;5093040;28;20048;-78
2021/01/21 06:47:57;;;;;;;221.38;119.60;;;;;;;2.43;96.15;100661.94;5093020;28;20036;-76
2021/01/21 06:51:12;;;;;;;210.77;113.35;;;;;;;2.44;96.07;100653.09;5092986;28;20036;-76
2021/01/21 06:54:17;;;;;;;215.82;114.38;;;;;;;2.46;96.10;100664.44;5093375;28;20044;-77
2021/01/21 06:57:33;;;;;;;209.75;114.05;;;;;;;2.45;96.10;100663.59;5096403;28;20040;-76
2021/01/21 07:00:40;;;;;;;209.00;115.88;;;;;;;2.50;96.07;100663.34;5095993;28;20044;-78
2021/01/21 07:03:44;;;;;;;206.90;113.05;;;;;;;2.53;96.18;100671.16;5093140;28;20048;-75
2021/01/21 07:07:00;;;;;;;200.63;111.55;;;;;;;2.52;95.94;100651.75;5074726;28;20044;-74
2021/01/21 07:10:08;;;;;;;199.63;111.32;;;;;;;2.56;95.94;100655.13;5076027;28;20067;-74
2021/01/21 07:13:24;;;;;;;200.15;112.65;;;;;;;2.54;95.85;100657.81;5076064;28;20037;-74
2021/01/21 07:16:29;;;;;;;211.80;114.15;;;;;;;2.42;95.92;100657.59;5074727;28;20044;-74
2021/01/21 07:19:37;;;;;;;229.40;120.22;;;;;;;2.32;96.32;100659.81;5075807;28;20041;-76
2021/01/21 07:22:45;;;;;;;233.40;120.13;;;;;;;2.29;96.70;100660.00;5075836;28;20045;-75
2021/01/21 07:25:50;;;;;;;221.07;115.15;;;;;;;2.30;96.79;100639.66;5079122;28;20387;-74
2021/01/21 07:28:54;;;;;;;214.02;112.35;;;;;;;2.38;96.75;100656.03;5094295;28;20048;-76
2021/01/21 07:31:59;;;;;;;205.25;110.97;;;;;;;2.45;96.68;100644.19;5091958;28;20036;-77
2021/01/21 07:35:04;;;;;;;207.77;110.57;;;;;;;2.50;96.85;100642.16;5092928;28;20542;-77
2021/01/21 07:38:08;;;;;;;194.85;106.90;;;;;;;2.67;96.82;100654.59;5091722;28;20047;-75
2021/01/21 07:41:41;;;;;;;178.10;101.22;;;;;;;2.82;96.61;100651.13;5092470;28;20040;-75
2021/01/21 07:44:58;;;;;;;172.95;100.32;;;;;;;2.95;96.21;100665.47;5093222;28;20052;-73
2021/01/21 07:48:24;;;;;;;170.50;99.72;;;;;;;2.99;95.55;100654.63;5095425;28;20044;-74
2021/01/21 07:51:28;;;;;;;159.68;98.85;;;;;;;3.11;94.88;100648.69;5095259;28;20044;-80
2021/01/21 07:54:50;;;;;;;150.38;94.80;;;;;;;3.27;94.43;100639.00;5095401;28;20036;-76
2021/01/21 07:58:20;;;;;;;159.35;101.65;;;;;;;3.42;93.89;100636.44;5095074;28;20043;-74
2021/01/21 08:01:25;;;;;;;143.18;90.22;;;;;;;3.46;93.13;100624.72;5094467;28;20048;-74
2021/01/21 08:04:30;;;;;;;139.05;87.72;;;;;;;3.56;92.65;100631.22;5095911;28;20032;-79
2021/01/21 08:07:45;;;;;;;139.93;87.70;;;;;;;3.65;92.08;100636.06;5095256;28;20151;-74
2021/01/21 08:10:50;;;;;;;136.55;87.72;;;;;;;3.69;91.67;100626.97;5095249;28;20143;-74
2021/01/21 08:13:58;;;;;;;146.77;92.03;;;;;;;3.68;90.90;100618.16;5095082;28;20043;-74
2021/01/21 08:17:03;;;;;;;133.75;89.95;;;;;;;3.67;90.83;100645.66;5095117;28;20044;-75
2021/01/21 08:20:10;;;;;;;142.32;91.95;;;;;;;3.62;90.91;100654.81;5095093;28;20463;-73
2021/01/21 08:23:16;;;;;;;148.35;93.90;;;;;;;3.52;90.92;100648.28;5095020;28;20044;-75
2021/01/21 08:26:20;;;;;;;152.00;96.15;;;;;;;3.58;91.48;100640.00;5054701;28;20049;-74
2021/01/21 08:29:30;;;;;;;157.38;101.13;;;;;;;3.46;91.77;100648.59;5053812;28;20048;-74
2021/01/21 08:32:34;;;;;;;160.75;97.93;;;;;;;3.46;92.23;100646.81;5054466;28;20044;-76
2021/01/21 08:35:54;;;;;;;170.68;95.72;;;;;;;3.38;92.33;100653.47;5053405;28;20037;-74
2021/01/21 08:39:00;;;;;;;164.98;94.95;;;;;;;3.39;92.43;100652.53;5054281;28;20451;-74
2021/01/21 08:42:07;;;;;;;178.02;96.80;;;;;;;3.39;92.87;100640.13;5054315;28;20049;-75
2021/01/21 08:45:12;;;;;;;165.55;94.25;;;;;;;3.41;92.83;100661.28;5053892;28;20041;-74
2021/01/21 08:48:27;;;;;;;176.48;96.65;;;;;;;3.37;92.64;100668.53;5054008;28;20041;-75
2021/01/21 08:51:42;;;;;;;170.63;93.00;;;;;;;3.34;92.68;100671.34;5054150;28;20033;-74
2021/01/21 08:54:53;;;;;;;170.10;90.70;;;;;;;3.38;92.88;100664.09;5053995;28;20041;-74
2021/01/21 08:58:02;;;;;;;171.55;92.47;;;;;;;3.30;92.68;100669.81;5053972;28;20045;-76
2021/01/21 09:01:10;;;;;;;166.95;88.10;;;;;;;3.39;93.00;100671.09;5053959;28;20045;-79
2021/01/21 09:04:37;;;;;;;171.63;88.70;;;;;;;3.41;92.90;100661.28;5053976;28;20100;-74
2021/01/21 09:07:41;;;;;;;160.30;84.47;;;;;;;3.46;92.89;100657.41;5053899;28;20049;-78
2021/01/21 09:10:46;;;;;;;153.60;83.90;;;;;;;3.53;92.49;100674.72;5053206;28;20041;-74
2021/01/21 09:13:50;;;;;;;167.95;89.88;;;;;;;3.62;92.53;100663.63;5053854;28;20041;-74
2021/01/21 09:16:55;;;;;;;185.35;96.78;;;;;;;3.64;92.17;100666.19;5052232;28;20048;-75
2021/01/21 09:20:01;;;;;;;185.05;97.80;;;;;;;3.69;91.93;100688.91;5053747;28;20460;-73
2021/01/21 09:23:20;;;;;;;179.75;95.15;;;;;;;3.80;91.76;100696.28;5052953;28;20040;-75
2021/01/21 09:26:25;;;;;;;173.55;98.15;;;;;;;3.75;91.49;100699.16;5052925;28;20485;-79
2021/01/21 09:30:05;;;;;;;181.43;99.25;;;;;;;3.75;91.55;100683.22;5053385;28;20041;-79
2021/01/21 09:33:09;;;;;;;174.55;97.50;;;;;;;3.78;91.36;100685.72;5051479;28;20053;-75
2021/01/21 09:36:14;;;;;;;168.98;95.50;;;;;;;3.80;91.25;100688.31;5051532;28;20053;-75
2021/01/21 09:39:19;;;;;;;156.75;95.82;;;;;;;3.82;91.35;100689.09;5051343;28;20049;-79
2021/01/21 09:42:23;;;;;;;169.00;99.03;;;;;;;3.82;91.55;100675.81;5051367;28;20045;-74
2021/01/21 09:45:29;;;;;;;150.98;88.18;;;;;;;3.89;91.49;100682.50;5051432;28;20041;-74
2021/01/21 09:48:33;;;;;;;135.52;83.18;;;;;;;4.00;90.58;100682.75;5051348;28;20045;-74
2021/01/21 09:51:38;;;;;;;130.48;80.22;;;;;;;4.21;90.11;100670.94;5051540;28;20045;-76
2021/01/21 09:54:42;;;;;;;139.75;80.45;;;;;;;4.23;89.26;100666.38;5039761;28;20048;-75
2021/01/21 09:57:47;;;;;;;130.57;80.22;;;;;;;4.38;88.83;100678.78;5051312;28;20053;-75
2021/01/21 10:00:52;;;;;;;126.45;77.00;;;;;;;4.42;88.32;100680.31;5051267;28;20511;-75
2021/01/21 10:03:56;;;;;;;139.32;83.53;;;;;;;4.37;88.26;100677.06;5051306;28;20045;-73
2021/01/21 10:07:01;;;;;;;135.13;83.45;;;;;;;4.33;88.76;100664.91;5052841;28;20052;-80
2021/01/21 10:10:06;;;;;;;143.38;83.78;;;;;;;4.33;88.65;100656.94;5053185;28;20045;-74
2021/01/21 10:13:10;;;;;;;135.02;82.22;;;;;;;4.33;88.85;100650.75;5052366;28;20456;-79
2021/01/21 10:16:14;;;;;;;138.73;81.85;;;;;;;4.37;88.63;100653.16;5053176;28;20044;-76
2021/01/21 10:19:19;;;;;;;135.00;80.50;;;;;;;4.34;88.49;100661.31;5053002;28;20049;-77
2021/01/21 10:22:23;;;;;;;139.43;82.25;;;;;;;4.34;88.35;100640.06;5052935;28;20037;-73
2021/01/21 10:25:27;;;;;;;138.18;83.75;;;;;;;4.35;88.53;100646.22;5080084;28;20040;-73
2021/01/21 10:28:32;;;;;;;144.88;87.95;;;;;;;4.31;88.46;100652.66;5094268;28;20047;-75
2021/01/21 10:31:36;;;;;;;149.18;89.70;;;;;;;4.21;88.77;100647.03;5097155;28;20032;-75
2021/01/21 10:34:41;;;;;;;149.65;90.80;;;;;;;4.18;88.99;100641.88;5097027;28;20040;-80
2021/01/21 10:37:45;;;;;;;158.93;94.68;;;;;;;4.11;89.15;100637.84;5096942;28;20040;-76
2021/01/21 10:40:49;;;;;;;156.13;91.95;;;;;;;4.08;89.79;100638.03;5097023;28;20052;-74
2021/01/21 10:43:53;;;;;;;160.57;94.43;;;;;;;4.10;89.61;100643.28;5096928;28;20036;-74
2021/01/21 10:46:58;;;;;;;162.23;95.13;;;;;;;4.20;89.56;100655.06;5095987;28;20032;-75
2021/01/21 10:50:03;;;;;;;156.65;91.78;;;;;;;4.13;89.47;100625.34;5096765;28;20036;-77
2021/01/21 10:53:08;;;;;;;156.18;90.28;;;;;;;4.22;89.66;100632.78;5096798;28;20040;-73
2021/01/21 10:56:20;;;;;;;146.15;88.10;;;;;;;4.23;89.11;100625.66;5096993;28;20455;-72
2021/01/21 10:59:24;;;;;;;154.98;91.97;;;;;;;4.20;88.92;100624.03;5096654;28;20044;-73
2021/01/21 11:02:29;;;;;;;145.82;89.15;;;;;;;4.20;89.18;100624.03;5095653;28;20471;-79
2021/01/21 11:05:33;;;;;;;147.70;88.90;;;;;;;4.20;89.05;100612.56;5096788;28;20032;-74
2021/01/21 11:08:37;;;;;;;152.48;92.78;;;;;;;4.25;88.71;100599.84;5096423;28;20036;-76
2021/01/21 11:11:42;;;;;;;139.73;84.43;;;;;;;4.31;88.17;100602.19;5096359;28;20436;-74
2021/01/21 11:14:52;;;;;;;150.63;86.30;;;;;;;4.35;87.63;100615.19;5096255;28;20044;-74
2021/01/21 11:17:57;;;;;;;141.43;84.00;;;;;;;4.41;87.47;100617.50;5096288;28;20471;-75
2021/01/21 11:21:01;;;;;;;142.63;87.13;;;;;;;4.37;87.83;100615.94;5096294;28;20479;-80
2021/01/21 11:24:06;;;;;;;145.88;87.10;;;;;;;4.29;87.54;100602.28;5095911;28;20083;-74
2021/01/21 11:27:11;;;;;;;153.43;91.32;;;;;;;4.30;88.00;100611.06;5095856;28;20040;-76
2021/01/21 11:30:16;;;;;;;164.85;94.32;;;;;;;4.21;87.78;100609.81;5095214;28;20052;-75
2021/01/21 11:33:21;;;;;;;160.55;92.72;;;;;;;4.17;88.31;100618.94;5096304;28;20044;-74
2021/01/21 11:36:26;;;;;;;153.77;93.55;;;;;;;4.06;88.67;100621.31;5095912;28;20048;-75
2021/01/21 11:39:30;;;;;;;162.43;98.18;;;;;;;4.01;88.97;100602.13;5095780;28;20383;-74
2021/01/21 11:42:34;;;;;;;164.85;101.80;;;;;;;3.98;89.58;100602.31;5095241;28;20359;-74
2021/01/21 11:45:39;;;;;;;161.32;99.72;;;;;;;4.01;89.56;100601.28;5095765;28;20052;-74
2021/01/21 11:48:43;;;;;;;163.50;100.75;;;;;;;3.97;89.97;100592.66;5095718;28;20044;-80
2021/01/21 11:51:48;;;;;;;177.43;104.35;;;;;;;3.96;90.09;100590.91;5095681;28;20040;-76
2021/01/21 11:54:52;;;;;;;172.90;101.07;;;;;;;4.01;89.98;100588.00;5095495;28;20048;-74
2021/01/21 11:57:56;;;;;;;166.75;102.53;;;;;;;4.11;89.72;100583.88;5095613;28;20044;-76
2021/01/21 12:01:01;;;;;;;167.68;104.13;;;;;;;4.20;89.55;100583.31;5095299;28;20051;-73
2021/01/21 12:04:05;;;;;;;168.40;103.18;;;;;;;4.30;89.17;100581.84;5094501;28;20495;-74
2021/01/21 12:07:11;;;;;;;170.68;102.93;;;;;;;4.36;88.62;100563.78;5094437;28;20036;-74
2021/01/21 12:10:19;;;;;;;172.70;101.72;;;;;;;4.39;88.28;100566.25;5095190;28;20036;-72
2021/01/21 12:13:23;;;;;;;164.13;103.25;;;;;;;4.42;87.99;100563.38;5095048;28;20039;-74
2021/01/21 12:16:28;;;;;;;167.02;101.97;;;;;;;4.53;88.11;100557.44;5095067;28;20043;-80
2021/01/21 12:19:32;;;;;;;160.82;99.80;;;;;;;4.51;87.44;100548.72;5094962;28;20036;-75
2021/01/21 12:22:37;;;;;;;166.90;102.95;;;;;;;4.51;87.23;100554.88;5095043;28;20438;-81
2021/01/21 12:25:41;;;;;;;174.75;105.68;;;;;;;4.62;87.55;100561.38;5094343;28;20036;-74
2021/01/21 12:28:45;;;;;;;166.32;103.95;;;;;;;4.67;87.36;100548.66;5094818;28;20052;-74
2021/01/21 12:31:51;;;;;;;173.25;103.53;;;;;;;4.59;87.07;100547.28;5094758;28;20044;-74
2021/01/21 12:34:55;;;;;;;166.88;101.78;;;;;;;4.59;86.79;100528.69;5093848;28;20076;-74
2021/01/21 12:37:59;;;;;;;181.13;107.38;;;;;;;4.59;87.31;100536.66;5094638;28;20335;-79
2021/01/21 12:41:03;;;;;;;178.15;105.97;;;;;;;4.57;87.25;100527.06;5093724;28;20044;-75
2021/01/21 12:44:08;;;;;;;168.88;103.45;;;;;;;4.59;87.49;100526.03;5094716;28;20048;-74
2021/01/21 12:47:13;;;;;;;170.45;103.10;;;;;;;4.63;87.11;100526.72;5093678;28;20043;-75
2021/01/21 12:50:17;;;;;;;171.73;103.15;;;;;;;4.59;87.66;100526.03;5094453;28;20044;-75
2021/01/21 12:53:22;;;;;;;173.13;106.82;;;;;;;4.51;87.51;100519.47;5093691;28;20040;-76
2021/01/21 12:56:27;;;;;;;172.32;106.93;;;;;;;4.34;88.04;100520.50;5094330;28;20044;-75
2021/01/21 12:59:31;;;;;;;182.38;106.30;;;;;;;4.32;88.78;100510.91;5093458;28;20055;-76
2021/01/21 13:02:37;;;;;;;176.38;105.18;;;;;;;4.32;88.57;100508.25;5094184;28;20415;-74
2021/01/21 13:05:41;;;;;;;175.70;104.47;;;;;;;4.34;88.68;100495.72;5094257;28;20044;-75
2021/01/21 13:08:45;;;;;;;173.00;103.55;;;;;;;4.38;88.65;100500.75;5094247;28;20040;-74
2021/01/21 13:11:49;;;;;;;170.43;103.32;;;;;;;4.50;88.68;100500.00;5093312;28;20459;-74
2021/01/21 13:14:54;;;;;;;174.43;105.25;;;;;;;4.57;88.35;100498.69;5094126;28;20395;-80
2021/01/21 13:17:58;;;;;;;172.32;108.07;;;;;;;4.64;88.16;100480.56;5093920;28;20040;-74
2021/01/21 13:21:03;;;;;;;176.32;103.57;;;;;;;4.62;87.86;100493.09;5094059;28;20044;-75
2021/01/21 13:24:07;;;;;;;181.70;108.78;;;;;;;4.52;87.54;100508.75;5092158;28;20395;-76
2021/01/21 13:27:12;;;;;;;184.38;110.03;;;;;;;4.54;87.59;100480.25;5093718;28;20044;-74
2021/01/21 13:30:17;;;;;;;185.43;110.28;;;;;;;4.45;87.66;100467.53;5092911;28;20044;-75
2021/01/21 13:33:21;;;;;;;174.00;106.93;;;;;;;4.44;87.37;100473.78;5093682;28;20051;-75
2021/01/21 13:36:26;;;;;;;174.60;105.78;;;;;;;4.52;87.33;100479.50;5092941;28;20048;-73
2021/01/21 13:39:30;;;;;;;174.25;103.13;;;;;;;4.56;87.26;100485.50;5093576;28;20051;-74
2021/01/21 13:42:34;;;;;;;180.35;106.72;;;;;;;4.49;87.04;100471.72;5093260;28;20044;-75
2021/01/21 13:45:39;;;;;;;178.02;105.82;;;;;;;4.54;87.43;100471.47;5093625;28;20044;-75
2021/01/21 13:48:43;;;;;;;172.65;103.70;;;;;;;4.58;87.27;100462.34;5093602;28;20471;-78
2021/01/21 13:51:47;;;;;;;177.10;103.65;;;;;;;4.62;87.01;100469.16;5093519;28;20040;-75
2021/01/21 13:54:52;;;;;;;173.30;106.05;;;;;;;4.64;86.97;100471.75;5092936;28;20379;-74
2021/01/21 13:57:56;;;;;;;169.82;103.57;;;;;;;4.63;86.80;100460.25;5092631;28;20040;-74
2021/01/21 14:01:00;;;;;;;174.50;105.03;;;;;;;4.65;86.89;100462.81;5093493;28;20475;-74
2021/01/21 14:04:05;;;;;;;177.50;107.90;;;;;;;4.68;86.83;100459.97;5095368;28;20387;-79
2021/01/21 14:07:10;;;;;;;179.85;105.40;;;;;;;4.70;86.65;100458.91;5097385;28;20044;-76
2021/01/21 14:10:15;;;;;;;170.77;106.80;;;;;;;4.68;86.64;100466.13;5097490;28;20040;-80